Time;durP1;ratioP1;P1;durP2;ratioP2;P2;SDS_P1;SDS_P2;PMS_P1;PMS_P2;Temp;Humidity;BMP_temperature;BMP_pressure;BME280_temperature;BME280_humidity;BME280_pressure;Samples;Min_cycle;Max_cycle;Signal;HPM_P1;HPM_P2
2022/12/31 00:01:01;;;;;;;6.60;3.83;;;;;;;;;;5121745;28;20687;-62
2022/12/31 00:03:29;;;;;;;7.37;3.97;;;;;;;;;;5117168;28;20217;-62
2022/12/31 00:05:57;;;;;;;7.77;3.10;;;;;;;;;;5121804;28;20211;-63
2022/12/31 00:08:26;;;;;;;6.07;3.50;;;;;;;;;;5121423;28;20284;-61
2022/12/31 00:10:54;;;;;;;5.17;3.03;;;;;;;;;;5121789;28;20240;-61
2022/12/31 00:13:22;;;;;;;5.33;3.50;;;;;;;;;;5121109;28;20747;-61
2022/12/31 00:15:50;;;;;;;6.83;3.73;;;;;;;;;;5121451;28;20244;-62
2022/12/31 00:18:18;;;;;;;8.70;3.73;;;;;;;;;;5120725;28;20219;-62
2022/12/31 00:20:46;;;;;;;5.60;3.60;;;;;;;;;;5121286;28;20737;-63
2022/12/31 00:23:14;;;;;;;10.87;3.53;;;;;;;;;;5121376;28;20225;-62
2022/12/31 00:25:43;;;;;;;8.20;3.67;;;;;;;;;;5121224;28;20217;-62
2022/12/31 00:28:11;;;;;;;10.30;3.97;;;;;;;;;;5121083;28;20217;-64
2022/12/31 00:30:39;;;;;;;5.87;3.63;;;;;;;;;;5121153;28;20255;-65
2022/12/31 00:33:07;;;;;;;6.00;3.33;;;;;;;;;;5120986;28;20225;-64
2022/12/31 00:35:35;;;;;;;7.60;3.40;;;;;;;;;;5119936;28;20224;-63
2022/12/31 00:38:03;;;;;;;7.50;3.63;;;;;;;;;;5119877;28;20243;-63
2022/12/31 00:40:31;;;;;;;6.70;4.00;;;;;;;;;;5112807;28;20235;-63
2022/12/31 00:43:01;;;;;;;8.37;3.63;;;;;;;;;;5120571;28;20284;-62
2022/12/31 00:45:29;;;;;;;5.50;3.20;;;;;;;;;;5120461;28;20702;-62
2022/12/31 00:47:57;;;;;;;6.20;3.23;;;;;;;;;;5119488;28;20211;-62
2022/12/31 00:50:25;;;;;;;6.17;3.50;;;;;;;;;;5120560;28;20639;-62
2022/12/31 00:52:53;;;;;;;4.37;3.30;;;;;;;;;;5121023;28;20263;-62
2022/12/31 00:55:21;;;;;;;5.87;3.03;;;;;;;;;;5120761;27;20209;-61
2022/12/31 00:57:49;;;;;;;4.43;2.93;;;;;;;;;;5120878;28;20239;-61
2022/12/31 01:00:18;;;;;;;5.03;3.43;;;;;;;;;;5102055;28;21299;-62
2022/12/31 01:02:46;;;;;;;4.03;3.00;;;;;;;;;;5114570;28;20225;-62
2022/12/31 01:05:15;;;;;;;5.47;3.10;;;;;;;;;;5120378;28;20652;-62
2022/12/31 01:07:42;;;;;;;6.63;3.30;;;;;;;;;;5120389;28;20755;-62
2022/12/31 01:10:11;;;;;;;6.83;3.17;;;;;;;;;;5120351;28;20691;-63
2022/12/31 01:12:39;;;;;;;7.20;3.10;;;;;;;;;;5120214;28;20270;-62
2022/12/31 01:15:07;;;;;;;4.13;3.03;;;;;;;;;;5119468;28;20212;-63
2022/12/31 01:17:36;;;;;;;7.07;3.17;;;;;;;;;;5120180;28;20205;-61
2022/12/31 01:20:05;;;;;;;5.27;3.23;;;;;;;;;;5120315;28;20197;-61
2022/12/31 01:22:33;;;;;;;7.17;3.30;;;;;;;;;;5120212;28;20217;-62
2022/12/31 01:25:01;;;;;;;5.43;2.80;;;;;;;;;;5120108;28;20220;-62
2022/12/31 01:27:29;;;;;;;3.50;2.90;;;;;;;;;;5120207;28;20212;-62
2022/12/31 01:29:57;;;;;;;3.37;2.90;;;;;;;;;;5119792;28;20281;-62
2022/12/31 01:32:25;;;;;;;3.97;3.30;;;;;;;;;;5118847;28;20659;-61
2022/12/31 01:34:54;;;;;;;4.77;2.80;;;;;;;;;;5119787;28;20207;-61
2022/12/31 01:37:22;;;;;;;5.70;3.03;;;;;;;;;;5120230;28;20204;-62
2022/12/31 01:39:50;;;;;;;3.13;2.77;;;;;;;;;;5119861;28;20707;-64
2022/12/31 01:42:18;;;;;;;4.27;3.50;;;;;;;;;;5120015;28;20247;-64
2022/12/31 01:44:53;;;;;;;5.73;2.93;;;;;;;;;;5119825;28;20241;-65
2022/12/31 01:47:26;;;;;;;5.77;3.03;;;;;;;;;;5119726;28;20207;-65
2022/12/31 01:49:58;;;;;;;3.70;3.33;;;;;;;;;;5118443;28;20226;-64
2022/12/31 01:52:28;;;;;;;5.47;3.00;;;;;;;;;;5119600;28;20212;-64
2022/12/31 01:54:57;;;;;;;4.73;2.90;;;;;;;;;;5117141;28;20237;-62
2022/12/31 01:57:26;;;;;;;7.37;3.20;;;;;;;;;;5110938;28;20225;-62
2022/12/31 01:59:55;;;;;;;7.03;3.37;;;;;;;;;;5119509;28;20204;-64
2022/12/31 02:02:23;;;;;;;3.30;3.00;;;;;;;;;;5119503;28;20204;-62
2022/12/31 02:04:54;;;;;;;5.50;2.83;;;;;;;;;;5119605;28;20581;-61
2022/12/31 02:07:23;;;;;;;5.77;3.03;;;;;;;;;;5118404;28;20205;-62
2022/12/31 02:09:52;;;;;;;4.80;2.90;;;;;;;;;;5118097;28;20225;-61
2022/12/31 02:12:20;;;;;;;4.43;2.73;;;;;;;;;;5118699;28;20196;-62
2022/12/31 02:14:49;;;;;;;5.17;2.80;;;;;;;;;;5119078;27;20209;-62
2022/12/31 02:17:23;;;;;;;5.07;2.90;;;;;;;;;;5119418;28;20232;-63
2022/12/31 02:20:08;;;;;;;5.87;3.03;;;;;;;;;;5119040;28;20567;-61
2022/12/31 02:22:44;;;;;;;8.13;3.47;;;;;;;;;;5119220;28;20315;-61
2022/12/31 02:25:23;;;;;;;5.73;3.20;;;;;;;;;;5118357;27;20212;-61
2022/12/31 02:27:53;;;;;;;5.10;2.80;;;;;;;;;;5119187;28;20243;-63
2022/12/31 02:30:23;;;;;;;3.17;2.67;;;;;;;;;;5118954;28;20312;-62
2022/12/31 02:32:59;;;;;;;5.00;2.83;;;;;;;;;;5118801;28;20308;-61
2022/12/31 02:35:30;;;;;;;4.90;2.73;;;;;;;;;;5118714;28;20287;-62
2022/12/31 02:38:01;;;;;;;3.67;2.80;;;;;;;;;;5119025;28;20256;-63
2022/12/31 02:40:29;;;;;;;3.57;2.63;;;;;;;;;;5118021;28;20228;-64
2022/12/31 02:42:57;;;;;;;4.30;2.60;;;;;;;;;;5118333;28;20602;-64
2022/12/31 02:45:29;;;;;;;3.20;2.93;;;;;;;;;;5118540;28;20211;-64
2022/12/31 02:48:06;;;;;;;6.33;3.27;;;;;;;;;;5118642;28;20631;-64
2022/12/31 02:50:38;;;;;;;4.97;3.37;;;;;;;;;;5118646;28;20266;-65
2022/12/31 02:53:18;;;;;;;4.20;2.90;;;;;;;;;;5118647;28;20224;-63
2022/12/31 02:55:58;;;;;;;3.93;2.97;;;;;;;;;;5118679;28;20292;-63
2022/12/31 03:04:30;;;;;;;6.77;2.70;;;;;;;;;;5118442;28;20235;-61
2022/12/31 03:06:53;;;;;;;3.50;2.97;;;;;;;;;;5118070;28;20208;-61
2022/12/31 03:09:21;;;;;;;4.90;3.43;;;;;;;;;;5118354;28;20260;-62
2022/12/31 03:14:35;;;;;;;4.60;3.07;;;;;;;;;;5116779;28;20303;-61
2022/12/31 03:17:04;;;;;;;10.13;3.17;;;;;;;;;;5118147;28;20288;-61
2022/12/31 03:22:30;;;;;;;5.53;3.20;;;;;;;;;;5117277;28;20210;-63
2022/12/31 03:27:45;;;;;;;5.97;3.27;;;;;;;;;;5117892;28;20287;-62
2022/12/31 03:30:14;;;;;;;6.03;3.00;;;;;;;;;;5117704;28;20228;-62
2022/12/31 03:32:44;;;;;;;3.70;3.23;;;;;;;;;;5115677;28;20695;-62
2022/12/31 03:35:12;;;;;;;4.60;3.07;;;;;;;;;;5112657;28;20198;-62
2022/12/31 03:37:41;;;;;;;5.90;2.80;;;;;;;;;;5118273;28;20219;-61
2022/12/31 03:40:10;;;;;;;7.73;3.37;;;;;;;;;;5118143;28;20200;-62
2022/12/31 03:42:38;;;;;;;5.27;2.90;;;;;;;;;;5117748;28;20259;-61
2022/12/31 03:45:07;;;;;;;2.87;2.63;;;;;;;;;;5117870;28;20236;-63
2022/12/31 03:47:35;;;;;;;6.77;3.57;;;;;;;;;;5117085;28;20640;-64
2022/12/31 03:50:05;;;;;;;5.43;3.60;;;;;;;;;;5113909;28;20233;-65
2022/12/31 03:52:33;;;;;;;5.70;2.87;;;;;;;;;;5118111;28;20211;-64
2022/12/31 03:55:02;;;;;;;5.50;3.20;;;;;;;;;;5118027;28;20219;-64
2022/12/31 03:57:30;;;;;;;5.90;3.20;;;;;;;;;;5107704;28;20234;-63
2022/12/31 03:59:58;;;;;;;5.27;3.10;;;;;;;;;;5116575;28;20236;-63
2022/12/31 04:02:26;;;;;;;6.40;2.77;;;;;;;;;;5118112;28;20211;-63
2022/12/31 04:04:56;;;;;;;5.03;3.33;;;;;;;;;;5117149;28;20216;-63
2022/12/31 04:07:25;;;;;;;3.67;2.90;;;;;;;;;;5111306;28;20200;-63
2022/12/31 04:09:53;;;;;;;6.80;3.37;;;;;;;;;;5104323;28;20225;-64
2022/12/31 04:12:21;;;;;;;4.87;3.10;;;;;;;;;;5117682;28;20676;-64
2022/12/31 04:14:49;;;;;;;4.07;3.07;;;;;;;;;;5117778;28;20236;-63
2022/12/31 04:17:17;;;;;;;8.50;3.47;;;;;;;;;;5117925;28;20204;-64
2022/12/31 04:19:45;;;;;;;5.67;2.93;;;;;;;;;;5118009;28;20222;-63
2022/12/31 04:22:13;;;;;;;7.30;3.20;;;;;;;;;;5116973;28;20243;-63
2022/12/31 04:24:43;;;;;;;6.33;3.70;;;;;;;;;;5117896;28;20255;-63
2022/12/31 04:27:11;;;;;;;8.23;3.60;;;;;;;;;;5117791;28;20268;-63
2022/12/31 04:29:39;;;;;;;5.47;2.60;;;;;;;;;;5117355;28;20719;-64
2022/12/31 04:32:07;;;;;;;7.00;2.80;;;;;;;;;;5117766;28;20209;-64
2022/12/31 04:34:35;;;;;;;10.20;3.50;;;;;;;;;;5117884;28;20224;-64
2022/12/31 04:37:03;;;;;;;3.87;2.60;;;;;;;;;;5121481;28;20231;-64
2022/12/31 04:39:31;;;;;;;6.50;2.97;;;;;;;;;;5120576;28;20228;-64
2022/12/31 04:42:01;;;;;;;6.50;2.83;;;;;;;;;;5121285;28;20203;-64
2022/12/31 04:44:30;;;;;;;4.57;3.03;;;;;;;;;;5120920;28;20312;-65
2022/12/31 04:46:58;;;;;;;5.13;3.03;;;;;;;;;;5121410;28;20290;-65
2022/12/31 04:49:26;;;;;;;5.43;2.97;;;;;;;;;;5121093;28;20235;-65
2022/12/31 04:51:54;;;;;;;4.33;2.67;;;;;;;;;;5120664;28;20703;-64
2022/12/31 04:54:22;;;;;;;3.33;3.03;;;;;;;;;;5121037;28;20284;-64
2022/12/31 04:56:50;;;;;;;4.03;2.80;;;;;;;;;;5118609;27;20228;-64
2022/12/31 04:59:19;;;;;;;5.07;2.80;;;;;;;;;;5117714;28;20573;-64
2022/12/31 05:01:47;;;;;;;4.67;2.90;;;;;;;;;;5120917;28;20197;-64
2022/12/31 05:04:16;;;;;;;3.17;2.60;;;;;;;;;;5120434;28;20232;-63
2022/12/31 05:06:43;;;;;;;4.60;2.77;;;;;;;;;;5113134;28;20224;-65
2022/12/31 05:09:11;;;;;;;5.20;2.43;;;;;;;;;;5120792;28;20211;-65
2022/12/31 05:11:39;;;;;;;7.37;3.00;;;;;;;;;;5120356;28;20223;-65
2022/12/31 05:14:07;;;;;;;5.97;2.60;;;;;;;;;;5120128;28;20221;-65
2022/12/31 05:16:37;;;;;;;4.30;2.63;;;;;;;;;;5120617;28;20207;-63
2022/12/31 05:19:08;;;;;;;3.77;3.30;;;;;;;;;;5112339;28;20198;-63
2022/12/31 05:21:36;;;;;;;4.27;2.90;;;;;;;;;;5120306;28;20258;-63
2022/12/31 05:24:04;;;;;;;5.90;2.80;;;;;;;;;;5120049;28;20319;-65
2022/12/31 05:26:32;;;;;;;7.17;2.80;;;;;;;;;;5120316;27;20227;-64
2022/12/31 05:29:00;;;;;;;3.90;3.03;;;;;;;;;;5120211;28;20215;-65
2022/12/31 05:31:28;;;;;;;4.17;2.90;;;;;;;;;;5120290;28;20273;-64
2022/12/31 05:33:58;;;;;;;5.17;2.50;;;;;;;;;;5117549;28;20224;-64
2022/12/31 05:36:26;;;;;;;4.40;2.80;;;;;;;;;;5120208;28;20204;-63
2022/12/31 05:38:54;;;;;;;3.83;2.60;;;;;;;;;;5119944;28;20568;-63
2022/12/31 05:41:22;;;;;;;3.83;2.57;;;;;;;;;;5120166;28;20201;-65
2022/12/31 05:43:50;;;;;;;7.10;2.90;;;;;;;;;;5118471;28;20293;-65
2022/12/31 05:46:18;;;;;;;3.37;2.73;;;;;;;;;;5119462;28;20656;-63
2022/12/31 05:48:46;;;;;;;5.63;3.00;;;;;;;;;;5120041;28;20283;-64
2022/12/31 05:51:15;;;;;;;5.30;2.90;;;;;;;;;;5118335;28;20217;-64
2022/12/31 05:53:43;;;;;;;8.77;3.40;;;;;;;;;;5119510;28;20264;-63
2022/12/31 05:56:11;;;;;;;3.43;2.77;;;;;;;;;;5119645;28;20208;-64
2022/12/31 05:58:39;;;;;;;3.10;2.83;;;;;;;;;;5113199;28;20229;-65
2022/12/31 06:01:07;;;;;;;4.80;3.00;;;;;;;;;;5107056;28;20563;-63
2022/12/31 06:03:35;;;;;;;4.07;2.93;;;;;;;;;;5115572;28;20274;-63
2022/12/31 06:06:03;;;;;;;5.83;3.10;;;;;;;;;;5114486;28;20196;-65
2022/12/31 06:08:33;;;;;;;4.80;2.80;;;;;;;;;;5112500;28;20229;-65
2022/12/31 06:11:01;;;;;;;5.63;3.13;;;;;;;;;;5119190;28;20256;-65
2022/12/31 06:13:29;;;;;;;6.40;3.23;;;;;;;;;;5118990;28;20600;-63
2022/12/31 06:15:57;;;;;;;5.53;3.37;;;;;;;;;;5119143;28;20229;-64
2022/12/31 06:18:25;;;;;;;6.03;3.27;;;;;;;;;;5119461;28;20221;-64
2022/12/31 06:20:53;;;;;;;3.60;2.83;;;;;;;;;;5119167;28;20225;-64
2022/12/31 06:23:21;;;;;;;4.80;3.00;;;;;;;;;;5118132;28;20658;-64
2022/12/31 06:25:50;;;;;;;3.37;3.00;;;;;;;;;;5119071;28;20219;-64
2022/12/31 06:28:18;;;;;;;4.03;2.67;;;;;;;;;;5119019;28;20214;-63
2022/12/31 06:30:47;;;;;;;4.23;2.93;;;;;;;;;;5119246;28;20208;-64
2022/12/31 06:33:15;;;;;;;4.47;2.50;;;;;;;;;;5119150;28;20293;-64
2022/12/31 06:35:43;;;;;;;3.20;2.90;;;;;;;;;;5106293;28;20200;-64
2022/12/31 06:38:11;;;;;;;7.40;3.73;;;;;;;;;;5119076;28;20200;-65
2022/12/31 06:40:39;;;;;;;6.40;4.10;;;;;;;;;;5118022;28;20197;-65
2022/12/31 06:43:08;;;;;;;5.93;3.60;;;;;;;;;;5118299;28;20228;-64
2022/12/31 06:45:38;;;;;;;3.13;2.40;;;;;;;;;;5119071;28;20204;-65
2022/12/31 06:48:06;;;;;;;3.83;2.30;;;;;;;;;;5118669;27;20574;-64
2022/12/31 06:50:34;;;;;;;5.80;2.57;;;;;;;;;;5118600;28;20715;-65
2022/12/31 06:53:03;;;;;;;3.50;2.80;;;;;;;;;;5116853;28;20597;-65
2022/12/31 06:55:31;;;;;;;2.90;2.60;;;;;;;;;;5118922;28;20211;-65
2022/12/31 06:57:59;;;;;;;3.27;2.60;;;;;;;;;;5117276;28;20228;-65
2022/12/31 07:00:29;;;;;;;4.73;2.53;;;;;;;;;;5118769;28;20254;-64
2022/12/31 07:03:06;;;;;;;2.43;2.23;;;;;;;;;;5118368;28;20245;-64
2022/12/31 07:05:39;;;;;;;2.37;2.17;;;;;;;;;;5118545;28;20609;-65
2022/12/31 07:08:14;;;;;;;2.47;2.20;;;;;;;;;;5117543;28;20205;-65
2022/12/31 07:10:45;;;;;;;4.00;2.10;;;;;;;;;;5118729;28;20214;-65
2022/12/31 07:13:25;;;;;;;4.57;1.90;;;;;;;;;;5118037;28;20224;-62
2022/12/31 07:16:02;;;;;;;3.57;2.00;;;;;;;;;;5113630;28;20196;-63
2022/12/31 07:18:35;;;;;;;1.93;1.70;;;;;;;;;;5110938;28;20200;-65
2022/12/31 07:21:04;;;;;;;3.33;1.93;;;;;;;;;;5118005;28;20233;-63
2022/12/31 07:23:32;;;;;;;2.13;1.93;;;;;;;;;;5111026;28;20237;-65
2022/12/31 07:26:03;;;;;;;2.67;2.00;;;;;;;;;;5117351;28;20569;-65
2022/12/31 07:28:38;;;;;;;2.20;2.00;;;;;;;;;;5118170;28;20209;-65
2022/12/31 07:31:13;;;;;;;1.87;1.70;;;;;;;;;;5118280;28;20204;-65
2022/12/31 07:33:48;;;;;;;4.87;2.33;;;;;;;;;;5118168;28;20228;-65
2022/12/31 07:36:21;;;;;;;4.20;2.47;;;;;;;;;;5118228;28;20205;-65
2022/12/31 07:38:53;;;;;;;3.37;2.13;;;;;;;;;;5117277;28;20276;-65
2022/12/31 07:41:28;;;;;;;4.57;2.10;;;;;;;;;;5117926;28;20204;-65
2022/12/31 07:43:59;;;;;;;4.23;1.80;;;;;;;;;;5104028;28;20256;-64
2022/12/31 07:46:33;;;;;;;4.97;2.00;;;;;;;;;;5117967;28;20656;-64
2022/12/31 07:49:02;;;;;;;2.47;2.00;;;;;;;;;;5114600;28;20208;-63
2022/12/31 07:51:30;;;;;;;5.07;2.20;;;;;;;;;;5117778;28;20287;-64
2022/12/31 07:53:58;;;;;;;3.33;2.50;;;;;;;;;;5117669;28;20223;-64
2022/12/31 07:56:26;;;;;;;2.30;2.10;;;;;;;;;;5116559;28;20308;-64
2022/12/31 07:58:59;;;;;;;2.27;2.07;;;;;;;;;;5115881;28;20240;-64
2022/12/31 08:01:33;;;;;;;2.40;2.20;;;;;;;;;;5114921;28;20926;-64
2022/12/31 08:04:03;;;;;;;6.73;2.77;;;;;;;;;;5111719;28;20573;-63
2022/12/31 08:06:36;;;;;;;3.00;2.00;;;;;;;;;;5115769;28;20570;-64
2022/12/31 08:09:07;;;;;;;6.93;2.10;;;;;;;;;;5115891;28;20251;-64
2022/12/31 08:11:38;;;;;;;3.17;1.80;;;;;;;;;;5121667;27;20200;-64
2022/12/31 08:14:08;;;;;;;3.53;2.00;;;;;;;;;;5121500;28;20220;-66
2022/12/31 08:16:38;;;;;;;2.20;2.00;;;;;;;;;;5120189;28;20264;-65
2022/12/31 08:19:07;;;;;;;2.53;1.90;;;;;;;;;;5113900;28;20212;-64
2022/12/31 08:21:38;;;;;;;3.73;2.30;;;;;;;;;;5119736;28;20232;-65
2022/12/31 08:24:11;;;;;;;2.17;1.80;;;;;;;;;;5113594;28;20217;-64
2022/12/31 08:26:45;;;;;;;2.60;1.80;;;;;;;;;;5121598;28;20209;-63
2022/12/31 08:29:28;;;;;;;2.83;1.93;;;;;;;;;;5121498;28;20204;-64
2022/12/31 08:32:03;;;;;;;2.97;1.80;;;;;;;;;;5121213;28;20215;-64
2022/12/31 08:34:35;;;;;;;2.77;2.00;;;;;;;;;;5115653;28;20250;-64
2022/12/31 08:37:07;;;;;;;2.03;1.87;;;;;;;;;;5120763;28;20201;-64
2022/12/31 08:39:44;;;;;;;2.67;1.70;;;;;;;;;;5118803;28;20277;-63
2022/12/31 08:42:18;;;;;;;2.37;1.80;;;;;;;;;;5116206;28;20235;-65
2022/12/31 08:44:52;;;;;;;4.93;2.37;;;;;;;;;;5117230;28;20201;-65
2022/12/31 08:47:26;;;;;;;1.97;1.80;;;;;;;;;;5118913;28;20266;-63
2022/12/31 08:49:54;;;;;;;2.30;2.10;;;;;;;;;;5119580;28;20200;-65
2022/12/31 08:52:23;;;;;;;2.50;1.93;;;;;;;;;;5119982;28;20248;-64
2022/12/31 08:54:52;;;;;;;2.67;2.00;;;;;;;;;;5120788;28;20690;-63
2022/12/31 08:57:25;;;;;;;3.67;2.30;;;;;;;;;;5120557;28;20658;-64
2022/12/31 08:59:58;;;;;;;4.03;1.80;;;;;;;;;;5120198;28;20288;-64
2022/12/31 09:02:45;;;;;;;2.50;2.00;;;;;;;;;;5120596;28;20574;-64
2022/12/31 09:05:18;;;;;;;2.53;2.10;;;;;;;;;;5120010;28;20201;-64
2022/12/31 09:07:51;;;;;;;2.17;1.60;;;;;;;;;;5117018;28;20255;-64
2022/12/31 09:10:21;;;;;;;1.60;1.50;;;;;;;;;;5120830;28;20201;-65
2022/12/31 09:12:55;;;;;;;2.67;1.90;;;;;;;;;;5118041;28;20225;-64
2022/12/31 09:15:26;;;;;;;4.27;2.03;;;;;;;;;;5120724;28;20258;-65
2022/12/31 09:17:55;;;;;;;4.47;1.50;;;;;;;;;;5120580;28;20209;-65
2022/12/31 09:20:25;;;;;;;1.63;1.53;;;;;;;;;;5119353;28;20262;-64
2022/12/31 09:23:09;;;;;;;4.37;2.40;;;;;;;;;;5109388;28;20221;-63
2022/12/31 09:25:41;;;;;;;2.13;1.80;;;;;;;;;;5120077;28;20714;-65
2022/12/31 09:28:14;;;;;;;2.37;1.60;;;;;;;;;;5119451;28;20239;-64
2022/12/31 09:30:45;;;;;;;3.03;1.83;;;;;;;;;;5120129;28;20565;-64
2022/12/31 09:33:18;;;;;;;1.87;1.70;;;;;;;;;;5120251;28;20228;-63
2022/12/31 09:35:51;;;;;;;2.37;1.87;;;;;;;;;;5119313;28;20236;-64
2022/12/31 09:38:21;;;;;;;4.13;1.70;;;;;;;;;;5119889;28;20212;-64
2022/12/31 09:40:55;;;;;;;1.77;1.67;;;;;;;;;;5120510;28;20200;-65
2022/12/31 09:43:39;;;;;;;1.93;1.73;;;;;;;;;;5119812;28;20213;-64
2022/12/31 09:46:15;;;;;;;1.33;1.23;;;;;;;;;;5118907;28;20224;-64
2022/12/31 09:49:04;;;;;;;2.83;1.47;;;;;;;;;;5119627;28;20211;-64
2022/12/31 09:51:36;;;;;;;2.13;1.37;;;;;;;;;;5086018;28;20205;-63
2022/12/31 09:54:19;;;;;;;2.13;1.30;;;;;;;;;;5108716;28;20221;-64
2022/12/31 09:56:50;;;;;;;1.20;1.20;;;;;;;;;;5116860;28;20228;-63
2022/12/31 09:59:29;;;;;;;1.33;1.20;;;;;;;;;;5119554;28;20212;-65
2022/12/31 10:02:02;;;;;;;1.40;1.30;;;;;;;;;;5118881;28;20201;-65
2022/12/31 10:04:38;;;;;;;1.77;1.40;;;;;;;;;;5119584;28;20281;-65
2022/12/31 10:07:19;;;;;;;2.30;1.10;;;;;;;;;;5119307;28;20240;-65
2022/12/31 10:09:55;;;;;;;1.63;1.30;;;;;;;;;;5119444;28;20208;-64
2022/12/31 10:12:41;;;;;;;1.77;1.27;;;;;;;;;;5119413;28;20240;-64
2022/12/31 10:15:23;;;;;;;1.30;1.27;;;;;;;;;;5076965;28;20200;-63
2022/12/31 10:17:59;;;;;;;0.90;0.90;;;;;;;;;;5109984;28;20213;-64
2022/12/31 10:20:31;;;;;;;1.27;1.17;;;;;;;;;;5116322;28;20201;-64
2022/12/31 10:23:16;;;;;;;1.03;1.03;;;;;;;;;;5115486;28;20232;-63
2022/12/31 10:25:50;;;;;;;1.03;0.93;;;;;;;;;;5119062;28;20205;-63
2022/12/31 10:28:23;;;;;;;0.90;0.90;;;;;;;;;;5118715;28;20236;-64
2022/12/31 10:30:59;;;;;;;0.80;0.80;;;;;;;;;;5119003;28;20213;-63
2022/12/31 10:33:38;;;;;;;2.23;1.13;;;;;;;;;;5117281;28;20232;-63
2022/12/31 10:36:08;;;;;;;1.27;0.83;;;;;;;;;;5110771;28;20209;-64
2022/12/31 10:38:45;;;;;;;1.93;0.93;;;;;;;;;;5117680;28;20228;-65
2022/12/31 10:41:28;;;;;;;1.17;1.07;;;;;;;;;;5118327;28;20239;-65
2022/12/31 10:44:26;;;;;;;1.87;0.93;;;;;;;;;;5107564;28;20288;-65
2022/12/31 10:47:10;;;;;;;2.20;0.97;;;;;;;;;;5118278;28;20664;-65
2022/12/31 10:49:51;;;;;;;2.63;2.00;;;;;;;;;;5117369;28;20568;-63
2022/12/31 10:52:43;;;;;;;1.10;1.00;;;;;;;;;;5111517;28;20660;-63
2022/12/31 10:55:25;;;;;;;2.83;1.03;;;;;;;;;;5118084;28;20307;-63
2022/12/31 10:58:09;;;;;;;0.90;0.90;;;;;;;;;;5117917;27;20236;-65
2022/12/31 11:00:40;;;;;;;2.67;0.80;;;;;;;;;;5118206;28;20292;-63
2022/12/31 11:03:37;;;;;;;1.00;0.90;;;;;;;;;;5118306;28;20252;-64
2022/12/31 11:06:17;;;;;;;2.37;1.07;;;;;;;;;;5116980;28;20221;-63
2022/12/31 11:08:53;;;;;;;3.40;1.73;;;;;;;;;;5108963;28;20247;-64
2022/12/31 11:11:30;;;;;;;1.10;1.00;;;;;;;;;;5110687;28;20204;-64
2022/12/31 11:14:09;;;;;;;3.27;1.23;;;;;;;;;;5117842;28;20243;-63
2022/12/31 11:16:49;;;;;;;2.00;1.33;;;;;;;;;;5118138;28;20263;-64
2022/12/31 11:19:21;;;;;;;1.37;1.00;;;;;;;;;;5118365;28;20201;-64
2022/12/31 11:21:53;;;;;;;1.20;1.10;;;;;;;;;;5117456;28;20279;-65
2022/12/31 11:24:28;;;;;;;1.23;1.13;;;;;;;;;;5117120;28;20676;-64
2022/12/31 11:27:03;;;;;;;5.17;1.30;;;;;;;;;;5117696;28;20239;-64
2022/12/31 11:29:38;;;;;;;1.33;1.23;;;;;;;;;;5117883;28;20272;-64
2022/12/31 11:32:22;;;;;;;1.70;1.20;;;;;;;;;;5114738;28;20201;-65
2022/12/31 11:35:08;;;;;;;1.20;1.10;;;;;;;;;;5116051;28;20252;-63
2022/12/31 11:37:41;;;;;;;2.20;0.97;;;;;;;;;;5118193;28;20244;-63
2022/12/31 11:40:21;;;;;;;1.00;1.00;;;;;;;;;;5116964;28;20207;-64
2022/12/31 11:42:55;;;;;;;1.33;1.23;;;;;;;;;;5118530;28;20220;-64
2022/12/31 11:45:34;;;;;;;1.30;1.20;;;;;;;;;;5122195;28;20223;-64
2022/12/31 11:48:08;;;;;;;2.50;1.03;;;;;;;;;;5122449;28;20217;-64
2022/12/31 11:51:02;;;;;;;3.17;1.87;;;;;;;;;;5121905;28;20578;-64
2022/12/31 11:53:48;;;;;;;2.13;1.80;;;;;;;;;;5121381;28;20224;-64
2022/12/31 11:56:17;;;;;;;1.00;1.00;;;;;;;;;;5081206;28;20226;-64
2022/12/31 11:58:48;;;;;;;1.40;1.30;;;;;;;;;;5121681;28;20541;-64
2022/12/31 12:01:18;;;;;;;1.60;1.13;;;;;;;;;;5122052;28;20254;-64
2022/12/31 12:03:47;;;;;;;1.23;1.13;;;;;;;;;;5121980;28;20315;-64
2022/12/31 12:06:17;;;;;;;1.03;1.00;;;;;;;;;;5121634;28;20208;-64
2022/12/31 12:08:45;;;;;;;1.43;1.00;;;;;;;;;;5122359;28;20211;-64
2022/12/31 12:11:17;;;;;;;1.83;1.10;;;;;;;;;;5120653;28;20205;-63
2022/12/31 12:13:47;;;;;;;1.43;1.20;;;;;;;;;;5120473;28;20221;-64
2022/12/31 12:16:16;;;;;;;1.43;1.20;;;;;;;;;;5112865;28;20232;-64
2022/12/31 12:18:44;;;;;;;1.17;1.07;;;;;;;;;;5121916;28;20201;-64
2022/12/31 12:21:14;;;;;;;2.83;1.20;;;;;;;;;;5121276;28;20208;-64
2022/12/31 12:23:54;;;;;;;1.83;1.50;;;;;;;;;;5121567;28;20235;-64
2022/12/31 12:26:29;;;;;;;1.27;1.10;;;;;;;;;;5121819;28;20208;-64
2022/12/31 12:29:01;;;;;;;7.33;4.00;;;;;;;;;;5120159;28;20196;-64
2022/12/31 12:31:32;;;;;;;14.17;8.30;;;;;;;;;;5121287;28;20235;-65
2022/12/31 12:34:01;;;;;;;11.77;4.70;;;;;;;;;;5119868;28;20227;-64
2022/12/31 12:36:29;;;;;;;8.00;3.63;;;;;;;;;;5121587;28;20208;-65
2022/12/31 12:39:01;;;;;;;5.40;3.50;;;;;;;;;;5121084;28;20236;-64
2022/12/31 12:41:29;;;;;;;5.07;2.90;;;;;;;;;;5121310;27;20205;-64
2022/12/31 12:44:07;;;;;;;9.30;3.50;;;;;;;;;;5120710;27;20683;-64
2022/12/31 12:46:36;;;;;;;2.83;1.90;;;;;;;;;;5120079;28;20231;-64
2022/12/31 12:49:04;;;;;;;1.23;1.23;;;;;;;;;;5120870;28;20262;-64
2022/12/31 12:51:35;;;;;;;1.87;1.47;;;;;;;;;;5121083;28;20254;-64
2022/12/31 12:54:08;;;;;;;2.47;1.43;;;;;;;;;;5120089;28;20229;-64
2022/12/31 12:56:40;;;;;;;5.53;1.20;;;;;;;;;;5120037;28;20308;-64
2022/12/31 12:59:18;;;;;;;3.70;1.30;;;;;;;;;;5111308;28;20197;-64
2022/12/31 13:01:47;;;;;;;1.33;1.23;;;;;;;;;;5120847;28;20212;-65
2022/12/31 13:04:25;;;;;;;1.40;1.30;;;;;;;;;;5107258;28;20228;-64
2022/12/31 13:07:10;;;;;;;1.23;1.17;;;;;;;;;;5115654;28;20534;-64
2022/12/31 13:09:48;;;;;;;1.40;1.10;;;;;;;;;;5120451;28;20208;-64
2022/12/31 13:12:19;;;;;;;3.00;1.47;;;;;;;;;;5108778;28;20201;-64
2022/12/31 13:14:52;;;;;;;1.67;1.37;;;;;;;;;;5107701;28;20260;-65
2022/12/31 13:17:36;;;;;;;3.30;2.47;;;;;;;;;;5108889;28;20284;-65
2022/12/31 13:20:07;;;;;;;1.87;1.40;;;;;;;;;;5120302;28;20213;-65
2022/12/31 13:22:38;;;;;;;2.10;1.20;;;;;;;;;;5120446;28;20231;-65
2022/12/31 13:25:17;;;;;;;1.40;1.30;;;;;;;;;;5120558;28;20229;-65
2022/12/31 13:27:46;;;;;;;1.43;1.20;;;;;;;;;;5117974;28;20204;-65
2022/12/31 13:30:18;;;;;;;3.13;1.43;;;;;;;;;;5119603;28;20201;-65
2022/12/31 13:32:48;;;;;;;3.37;1.40;;;;;;;;;;5119821;28;20228;-65
2022/12/31 13:35:21;;;;;;;1.97;1.40;;;;;;;;;;5119646;28;20740;-65
2022/12/31 13:37:51;;;;;;;1.20;1.10;;;;;;;;;;5120170;27;20209;-65
2022/12/31 13:40:21;;;;;;;1.40;1.30;;;;;;;;;;5119916;28;20208;-65
2022/12/31 13:42:53;;;;;;;2.73;1.50;;;;;;;;;;5117814;28;20308;-65
2022/12/31 13:45:25;;;;;;;3.47;1.40;;;;;;;;;;5119203;28;20229;-65
2022/12/31 13:47:56;;;;;;;2.53;1.50;;;;;;;;;;5120069;28;20208;-65
2022/12/31 13:50:26;;;;;;;4.30;1.60;;;;;;;;;;5119786;28;20209;-65
2022/12/31 13:52:57;;;;;;;4.20;1.80;;;;;;;;;;5119702;28;20260;-65
2022/12/31 13:55:28;;;;;;;2.47;1.80;;;;;;;;;;5119757;28;20267;-65
2022/12/31 13:58:01;;;;;;;1.67;1.20;;;;;;;;;;5105374;28;20255;-65
2022/12/31 14:00:34;;;;;;;2.87;1.33;;;;;;;;;;5119685;28;20204;-65
2022/12/31 14:03:06;;;;;;;1.43;1.30;;;;;;;;;;5119339;28;20250;-65
2022/12/31 14:05:37;;;;;;;1.93;1.40;;;;;;;;;;5119312;28;20212;-65
2022/12/31 14:08:06;;;;;;;4.47;1.50;;;;;;;;;;5119387;27;20236;-65
2022/12/31 14:10:40;;;;;;;1.50;1.40;;;;;;;;;;5119394;28;20263;-65
2022/12/31 14:13:17;;;;;;;2.90;1.60;;;;;;;;;;5118089;28;20217;-64
2022/12/31 14:15:51;;;;;;;1.70;1.50;;;;;;;;;;5119021;28;20579;-65
2022/12/31 14:18:21;;;;;;;1.30;1.20;;;;;;;;;;5119513;28;20201;-65
2022/12/31 14:20:53;;;;;;;1.43;1.13;;;;;;;;;;5119031;28;20297;-64
2022/12/31 14:23:24;;;;;;;2.20;1.40;;;;;;;;;;5119099;28;20240;-65
2022/12/31 14:25:54;;;;;;;2.53;1.60;;;;;;;;;;5119346;28;20289;-65
2022/12/31 14:28:26;;;;;;;1.60;1.50;;;;;;;;;;5119087;28;20211;-65
2022/12/31 14:30:58;;;;;;;1.77;1.20;;;;;;;;;;5118357;27;20214;-65
2022/12/31 14:33:34;;;;;;;1.53;1.43;;;;;;;;;;5117808;28;20260;-65
2022/12/31 14:36:09;;;;;;;1.93;1.10;;;;;;;;;;5118627;28;20594;-65
2022/12/31 14:38:43;;;;;;;1.77;1.20;;;;;;;;;;5106394;28;20231;-65
2022/12/31 14:41:25;;;;;;;1.07;1.00;;;;;;;;;;5111710;28;20259;-65
2022/12/31 14:43:59;;;;;;;1.90;1.40;;;;;;;;;;5118361;28;20260;-65
2022/12/31 14:46:32;;;;;;;1.23;0.80;;;;;;;;;;5118747;28;20205;-65
2022/12/31 14:49:04;;;;;;;1.00;1.00;;;;;;;;;;5118770;28;20249;-64
2022/12/31 14:51:34;;;;;;;1.37;1.27;;;;;;;;;;5118644;28;20680;-64
2022/12/31 14:54:02;;;;;;;1.07;1.07;;;;;;;;;;5118621;28;20232;-64
2022/12/31 14:56:32;;;;;;;0.80;0.80;;;;;;;;;;5117483;28;20256;-65
2022/12/31 14:59:01;;;;;;;0.80;0.80;;;;;;;;;;5107644;28;20237;-65
2022/12/31 15:01:30;;;;;;;1.30;1.20;;;;;;;;;;5116843;28;20250;-65
2022/12/31 15:03:58;;;;;;;2.00;1.30;;;;;;;;;;5116995;28;20235;-65
2022/12/31 15:06:47;;;;;;;1.77;1.67;;;;;;;;;;5112962;28;20207;-64
2022/12/31 15:09:19;;;;;;;2.33;1.07;;;;;;;;;;5112137;28;20257;-63
2022/12/31 15:12:00;;;;;;;1.73;1.20;;;;;;;;;;5118396;28;20205;-64
2022/12/31 15:14:43;;;;;;;1.23;1.00;;;;;;;;;;5118164;28;20235;-64
2022/12/31 15:17:18;;;;;;;1.30;1.20;;;;;;;;;;5108088;28;20236;-63
2022/12/31 15:20:04;;;;;;;1.10;1.00;;;;;;;;;;5114743;28;20204;-64
2022/12/31 15:22:38;;;;;;;1.70;1.27;;;;;;;;;;5118498;28;20232;-63
2022/12/31 15:25:20;;;;;;;1.80;1.20;;;;;;;;;;5118350;28;20201;-65